sensor_id;sensor_type;location;lat;lon;timestamp;pressure;altitude;pressure_sealevel;temperature;humidity
13314;BME280;6725;48.112;11.604;2023-01-08T00:01:26;94364.59;;;1.81;100.00
13314;BME280;6725;48.112;11.604;2023-01-08T00:03:51;94360.00;;;1.82;100.00
13314;BME280;6725;48.112;11.604;2023-01-08T00:06:18;94369.94;;;1.74;100.00
13314;BME280;6725;48.112;11.604;2023-01-08T00:08:45;94361.84;;;1.71;100.00
13314;BME280;6725;48.112;11.604;2023-01-08T00:11:11;94353.06;;;1.77;100.00
13314;BME280;6725;48.112;11.604;2023-01-08T00:13:37;94346.13;;;1.76;100.00
13314;BME280;6725;48.112;11.604;2023-01-08T00:16:07;94335.75;;;1.78;100.00
13314;BME280;6725;48.112;11.604;2023-01-08T00:18:33;94327.69;;;1.78;100.00
13314;BME280;6725;48.112;11.604;2023-01-08T00:20:59;94326.53;;;1.79;100.00
13314;BME280;6725;48.112;11.604;2023-01-08T00:23:25;94318.44;;;1.72;100.00
13314;BME280;6725;48.112;11.604;2023-01-08T00:25:50;94311.47;;;1.68;100.00
13314;BME280;6725;48.112;11.604;2023-01-08T00:28:16;94303.78;;;1.66;100.00
13314;BME280;6725;48.112;11.604;2023-01-08T00:30:41;94299.94;;;1.67;100.00
13314;BME280;6725;48.112;11.604;2023-01-08T00:33:07;94297.25;;;1.67;100.00
13314;BME280;6725;48.112;11.604;2023-01-08T00:35:32;94294.53;;;1.64;100.00
13314;BME280;6725;48.112;11.604;2023-01-08T00:37:57;94270.69;;;1.62;100.00
13314;BME280;6725;48.112;11.604;2023-01-08T00:40:23;94263.78;;;1.61;100.00
13314;BME280;6725;48.112;11.604;2023-01-08T00:42:48;94266.88;;;1.67;100.00
13314;BME280;6725;48.112;11.604;2023-01-08T00:45:14;94261.88;;;1.65;100.00
13314;BME280;6725;48.112;11.604;2023-01-08T00:47:39;94258.06;;;1.70;100.00
13314;BME280;6725;48.112;11.604;2023-01-08T00:50:05;94257.69;;;1.71;100.00
13314;BME280;6725;48.112;11.604;2023-01-08T00:52:30;94255.34;;;1.70;100.00
13314;BME280;6725;48.112;11.604;2023-01-08T00:54:55;94251.53;;;1.71;100.00
13314;BME280;6725;48.112;11.604;2023-01-08T00:57:21;94253.03;;;1.68;100.00
13314;BME280;6725;48.112;11.604;2023-01-08T00:59:46;94254.63;;;1.73;100.00
13314;BME280;6725;48.112;11.604;2023-01-08T01:02:11;94262.69;;;1.73;100.00
13314;BME280;6725;48.112;11.604;2023-01-08T01:04:37;94261.94;;;1.72;100.00
13314;BME280;6725;48.112;11.604;2023-01-08T01:07:03;94269.59;;;1.67;100.00
13314;BME280;6725;48.112;11.604;2023-01-08T01:09:28;94274.59;;;1.72;100.00
13314;BME280;6725;48.112;11.604;2023-01-08T01:11:54;94288.38;;;1.63;100.00
13314;BME280;6725;48.112;11.604;2023-01-08T01:14:19;94299.13;;;1.63;100.00
13314;BME280;6725;48.112;11.604;2023-01-08T01:16:44;94321.81;;;1.62;100.00
13314;BME280;6725;48.112;11.604;2023-01-08T01:19:13;94331.81;;;1.65;100.00
13314;BME280;6725;48.112;11.604;2023-01-08T01:21:39;94342.16;;;1.63;100.00
13314;BME280;6725;48.112;11.604;2023-01-08T01:24:05;94355.19;;;1.54;100.00
13314;BME280;6725;48.112;11.604;2023-01-08T01:26:31;94368.13;;;1.45;100.00
13314;BME280;6725;48.112;11.604;2023-01-08T01:28:57;94367.34;;;1.41;100.00
13314;BME280;6725;48.112;11.604;2023-01-08T01:31:23;94359.63;;;1.36;100.00
13314;BME280;6725;48.112;11.604;2023-01-08T01:33:50;94360.06;;;1.45;100.00
13314;BME280;6725;48.112;11.604;2023-01-08T01:36:17;94356.72;;;1.55;100.00
13314;BME280;6725;48.112;11.604;2023-01-08T01:38:47;94372.13;;;1.58;100.00
13314;BME280;6725;48.112;11.604;2023-01-08T01:43:52;94366.59;;;1.44;100.00
13314;BME280;6725;48.112;11.604;2023-01-08T01:46:39;94363.56;;;1.49;100.00
13314;BME280;6725;48.112;11.604;2023-01-08T01:49:10;94368.88;;;1.42;100.00
13314;BME280;6725;48.112;11.604;2023-01-08T01:51:37;94371.09;;;1.33;100.00
13314;BME280;6725;48.112;11.604;2023-01-08T01:54:08;94368.78;;;1.32;100.00
13314;BME280;6725;48.112;11.604;2023-01-08T01:56:34;94374.16;;;1.32;100.00
13314;BME280;6725;48.112;11.604;2023-01-08T01:59:00;94368.63;;;1.14;100.00
13314;BME280;6725;48.112;11.604;2023-01-08T02:01:27;94361.66;;;1.13;100.00
13314;BME280;6725;48.112;11.604;2023-01-08T02:03:53;94350.03;;;1.02;100.00
13314;BME280;6725;48.112;11.604;2023-01-08T02:12:16;94316.59;;;0.96;100.00
13314;BME280;6725;48.112;11.604;2023-01-08T02:14:59;94306.22;;;0.95;100.00
13314;BME280;6725;48.112;11.604;2023-01-08T02:17:38;94306.59;;;0.93;100.00
13314;BME280;6725;48.112;11.604;2023-01-08T02:20:16;94302.34;;;0.92;100.00
13314;BME280;6725;48.112;11.604;2023-01-08T02:28:37;94271.59;;;0.86;100.00
13314;BME280;6725;48.112;11.604;2023-01-08T02:31:04;94268.88;;;0.83;100.00
13314;BME280;6725;48.112;11.604;2023-01-08T02:33:31;94259.25;;;0.82;100.00
13314;BME280;6725;48.112;11.604;2023-01-08T02:36:23;94257.38;;;0.86;100.00
13314;BME280;6725;48.112;11.604;2023-01-08T02:46:59;94262.31;;;0.80;100.00
13314;BME280;6725;48.112;11.604;2023-01-08T02:49:29;94266.56;;;0.81;100.00
13314;BME280;6725;48.112;11.604;2023-01-08T02:51:56;94260.38;;;0.77;100.00
13314;BME280;6725;48.112;11.604;2023-01-08T02:54:27;94263.88;;;0.81;100.00
13314;BME280;6725;48.112;11.604;2023-01-08T02:57:07;94265.41;;;0.82;100.00
13314;BME280;6725;48.112;11.604;2023-01-08T02:59:36;94261.50;;;0.76;100.00
13314;BME280;6725;48.112;11.604;2023-01-08T03:02:03;94265.34;;;0.75;100.00
13314;BME280;6725;48.112;11.604;2023-01-08T03:04:33;94269.91;;;0.71;100.00
13314;BME280;6725;48.112;11.604;2023-01-08T03:07:01;94265.69;;;0.70;100.00
13314;BME280;6725;48.112;11.604;2023-01-08T03:09:27;94257.25;;;0.72;100.00
13314;BME280;6725;48.112;11.604;2023-01-08T03:11:57;94253.78;;;0.71;100.00
13314;BME280;6725;48.112;11.604;2023-01-08T03:14:27;94247.63;;;0.71;100.00
13314;BME280;6725;48.112;11.604;2023-01-08T03:16:58;94240.81;;;0.80;100.00
13314;BME280;6725;48.112;11.604;2023-01-08T03:19:46;94241.63;;;0.84;100.00
13314;BME280;6725;48.112;11.604;2023-01-08T03:22:14;94246.25;;;0.87;100.00
13314;BME280;6725;48.112;11.604;2023-01-08T03:24:42;94240.09;;;0.83;100.00
13314;BME280;6725;48.112;11.604;2023-01-08T03:27:11;94243.91;;;0.82;100.00
13314;BME280;6725;48.112;11.604;2023-01-08T03:29:39;94247.00;;;0.84;100.00
13314;BME280;6725;48.112;11.604;2023-01-08T03:32:10;94260.41;;;0.84;100.00
13314;BME280;6725;48.112;11.604;2023-01-08T03:34:41;94253.50;;;0.83;100.00
13314;BME280;6725;48.112;11.604;2023-01-08T03:37:08;94260.03;;;0.82;100.00
13314;BME280;6725;48.112;11.604;2023-01-08T03:39:44;94270.81;;;0.86;100.00
13314;BME280;6725;48.112;11.604;2023-01-08T03:42:14;94278.47;;;0.84;100.00
13314;BME280;6725;48.112;11.604;2023-01-08T03:44:40;94289.97;;;0.84;100.00
13314;BME280;6725;48.112;11.604;2023-01-08T03:47:08;94306.59;;;0.93;100.00
13314;BME280;6725;48.112;11.604;2023-01-08T03:49:35;94316.25;;;1.01;100.00
13314;BME280;6725;48.112;11.604;2023-01-08T03:52:02;94327.78;;;1.02;100.00
13314;BME280;6725;48.112;11.604;2023-01-08T03:54:33;94331.66;;;1.04;100.00
13314;BME280;6725;48.112;11.604;2023-01-08T03:56:58;94335.78;;;0.98;100.00
13314;BME280;6725;48.112;11.604;2023-01-08T03:59:24;94346.88;;;0.93;100.00
13314;BME280;6725;48.112;11.604;2023-01-08T04:01:49;94360.59;;;0.85;100.00
13314;BME280;6725;48.112;11.604;2023-01-08T04:04:15;94353.72;;;0.87;100.00
13314;BME280;6725;48.112;11.604;2023-01-08T04:06:41;94354.44;;;0.84;100.00
13314;BME280;6725;48.112;11.604;2023-01-08T04:09:06;94354.06;;;0.82;100.00
13314;BME280;6725;48.112;11.604;2023-01-08T04:11:35;94364.00;;;0.78;100.00
13314;BME280;6725;48.112;11.604;2023-01-08T04:14:01;94356.31;;;0.80;100.00
13314;BME280;6725;48.112;11.604;2023-01-08T04:16:26;94354.41;;;0.77;100.00
13314;BME280;6725;48.112;11.604;2023-01-08T04:18:52;94354.41;;;0.77;100.00
13314;BME280;6725;48.112;11.604;2023-01-08T04:21:17;94351.72;;;0.77;100.00
13314;BME280;6725;48.112;11.604;2023-01-08T04:23:43;94355.94;;;0.78;100.00
13314;BME280;6725;48.112;11.604;2023-01-08T04:26:08;94354.78;;;0.79;100.00
13314;BME280;6725;48.112;11.604;2023-01-08T04:28:35;94352.09;;;0.79;100.00
13314;BME280;6725;48.112;11.604;2023-01-08T04:31:07;94350.56;;;0.78;100.00
13314;BME280;6725;48.112;11.604;2023-01-08T04:33:33;94355.50;;;0.76;100.00
13314;BME280;6725;48.112;11.604;2023-01-08T04:36:02;94362.31;;;0.67;100.00
13314;BME280;6725;48.112;11.604;2023-01-08T04:38:29;94361.56;;;0.66;100.00
13314;BME280;6725;48.112;11.604;2023-01-08T04:40:56;94357.31;;;0.65;100.00
13314;BME280;6725;48.112;11.604;2023-01-08T04:43:22;94351.19;;;0.65;100.00
13314;BME280;6725;48.112;11.604;2023-01-08T04:45:47;94338.09;;;0.63;100.00
13314;BME280;6725;48.112;11.604;2023-01-08T04:48:13;94332.75;;;0.63;100.00
13314;BME280;6725;48.112;11.604;2023-01-08T04:50:39;94323.53;;;0.64;100.00
13314;BME280;6725;48.112;11.604;2023-01-08T04:53:05;94313.69;;;0.75;100.00
13314;BME280;6725;48.112;11.604;2023-01-08T04:55:30;94321.38;;;0.77;100.00
13314;BME280;6725;48.112;11.604;2023-01-08T04:57:55;94315.59;;;0.75;100.00
13314;BME280;6725;48.112;11.604;2023-01-08T05:00:21;94314.41;;;0.72;100.00
13314;BME280;6725;48.112;11.604;2023-01-08T05:02:46;94308.84;;;0.55;100.00
13314;BME280;6725;48.112;11.604;2023-01-08T05:05:11;94313.41;;;0.51;100.00
13314;BME280;6725;48.112;11.604;2023-01-08T05:07:37;94315.72;;;0.52;100.00
13314;BME280;6725;48.112;11.604;2023-01-08T05:10:02;94305.81;;;0.56;100.00
13314;BME280;6725;48.112;11.604;2023-01-08T05:12:28;94306.94;;;0.55;100.00
13314;BME280;6725;48.112;11.604;2023-01-08T05:14:53;94309.63;;;0.55;100.00
13314;BME280;6725;48.112;11.604;2023-01-08T05:17:18;94302.69;;;0.54;100.00
13314;BME280;6725;48.112;11.604;2023-01-08T05:19:44;94300.38;;;0.53;100.00
13314;BME280;6725;48.112;11.604;2023-01-08T05:22:09;94293.09;;;0.53;100.00
13314;BME280;6725;48.112;11.604;2023-01-08T05:24:35;94296.22;;;0.55;100.00
13314;BME280;6725;48.112;11.604;2023-01-08T05:27:00;94298.88;;;0.55;100.00
13314;BME280;6725;48.112;11.604;2023-01-08T05:29:25;94293.53;;;0.55;100.00
13314;BME280;6725;48.112;11.604;2023-01-08T05:31:50;94293.56;;;0.59;100.00
13314;BME280;6725;48.112;11.604;2023-01-08T05:34:16;94292.75;;;0.58;100.00
13314;BME280;6725;48.112;11.604;2023-01-08T05:36:41;94289.72;;;0.60;100.00
13314;BME280;6725;48.112;11.604;2023-01-08T05:39:07;94295.88;;;0.60;100.00
13314;BME280;6725;48.112;11.604;2023-01-08T05:41:32;94308.50;;;0.56;100.00
13314;BME280;6725;48.112;11.604;2023-01-08T05:43:59;94313.84;;;0.56;100.00
13314;BME280;6725;48.112;11.604;2023-01-08T05:46:24;94316.13;;;0.54;100.00
13314;BME280;6725;48.112;11.604;2023-01-08T05:48:50;94315.72;;;0.52;100.00
13314;BME280;6725;48.112;11.604;2023-01-08T05:51:15;94311.47;;;0.51;100.00
13314;BME280;6725;48.112;11.604;2023-01-08T05:53:40;94301.16;;;0.53;100.00
13314;BME280;6725;48.112;11.604;2023-01-08T05:56:07;94303.13;;;0.56;100.00
13314;BME280;6725;48.112;11.604;2023-01-08T05:58:33;94295.06;;;0.56;100.00
13314;BME280;6725;48.112;11.604;2023-01-08T06:01:07;94304.28;;;0.59;100.00
13314;BME280;6725;48.112;11.604;2023-01-08T06:03:33;94304.31;;;0.62;100.00
13314;BME280;6725;48.112;11.604;2023-01-08T06:06:00;94307.84;;;0.66;100.00
13314;BME280;6725;48.112;11.604;2023-01-08T06:08:28;94318.19;;;0.68;100.00
13314;BME280;6725;48.112;11.604;2023-01-08T06:10:54;94316.72;;;0.70;100.00
13314;BME280;6725;48.112;11.604;2023-01-08T06:13:22;94323.63;;;0.71;100.00
13314;BME280;6725;48.112;11.604;2023-01-08T06:15:47;94323.63;;;0.71;100.00
13314;BME280;6725;48.112;11.604;2023-01-08T06:18:13;94316.34;;;0.72;100.00
13314;BME280;6725;48.112;11.604;2023-01-08T06:20:38;94310.56;;;0.73;100.00
13314;BME280;6725;48.112;11.604;2023-01-08T06:23:03;94315.22;;;0.76;100.00
13314;BME280;6725;48.112;11.604;2023-01-08T06:25:29;94317.91;;;0.76;100.00
13314;BME280;6725;48.112;11.604;2023-01-08T06:27:57;94327.53;;;0.77;100.00
13314;BME280;6725;48.112;11.604;2023-01-08T06:30:22;94319.88;;;0.79;100.00
13314;BME280;6725;48.112;11.604;2023-01-08T06:32:47;94302.22;;;0.82;100.00
13314;BME280;6725;48.112;11.604;2023-01-08T06:35:13;94305.28;;;0.80;100.00
13314;BME280;6725;48.112;11.604;2023-01-08T06:37:38;94310.66;;;0.80;100.00
13314;BME280;6725;48.112;11.604;2023-01-08T06:40:04;94300.69;;;0.81;100.00
13314;BME280;6725;48.112;11.604;2023-01-08T06:42:29;94294.53;;;0.80;100.00
13314;BME280;6725;48.112;11.604;2023-01-08T06:44:55;94307.97;;;0.80;100.00
13314;BME280;6725;48.112;11.604;2023-01-08T06:47:20;94309.16;;;0.83;100.00
13314;BME280;6725;48.112;11.604;2023-01-08T06:49:45;94306.09;;;0.84;100.00
13314;BME280;6725;48.112;11.604;2023-01-08T06:52:11;94303.78;;;0.83;100.00
13314;BME280;6725;48.112;11.604;2023-01-08T06:54:36;94291.47;;;0.78;100.00
13314;BME280;6725;48.112;11.604;2023-01-08T06:57:02;94299.09;;;0.76;100.00
13314;BME280;6725;48.112;11.604;2023-01-08T06:59:27;94306.09;;;0.84;100.00
13314;BME280;6725;48.112;11.604;2023-01-08T07:01:52;94311.97;;;0.93;100.00
13314;BME280;6725;48.112;11.604;2023-01-08T07:04:18;94324.69;;;1.00;100.00
13314;BME280;6725;48.112;11.604;2023-01-08T07:06:44;94323.59;;;1.04;100.00
13314;BME280;6725;48.112;11.604;2023-01-08T07:09:13;94324.41;;;1.12;100.00
13314;BME280;6725;48.112;11.604;2023-01-08T07:11:42;94330.22;;;1.17;100.00
13314;BME280;6725;48.112;11.604;2023-01-08T07:14:07;94330.78;;;1.33;100.00
13314;BME280;6725;48.112;11.604;2023-01-08T07:16:33;94323.66;;;1.55;100.00
13314;BME280;6725;48.112;11.604;2023-01-08T07:18:59;94334.66;;;1.86;100.00
13314;BME280;6725;48.112;11.604;2023-01-08T07:21:24;94349.97;;;2.40;100.00
13314;BME280;6725;48.112;11.604;2023-01-08T07:23:50;94369.84;;;2.82;100.00
13314;BME280;6725;48.112;11.604;2023-01-08T07:26:15;94408.94;;;3.37;100.00
13314;BME280;6725;48.112;11.604;2023-01-08T07:28:41;94458.78;;;3.86;100.00
13314;BME280;6725;48.112;11.604;2023-01-08T07:31:07;94499.75;;;4.44;100.00
13314;BME280;6725;48.112;11.604;2023-01-08T07:33:32;94552.63;;;4.48;100.00
13314;BME280;6725;48.112;11.604;2023-01-08T07:35:58;94586.94;;;4.16;100.00
13314;BME280;6725;48.112;11.604;2023-01-08T07:38:23;94601.13;;;3.92;100.00
13314;BME280;6725;48.112;11.604;2023-01-08T07:40:49;94599.50;;;3.74;100.00
13314;BME280;6725;48.112;11.604;2023-01-08T07:43:14;94597.47;;;3.49;100.00
13314;BME280;6725;48.112;11.604;2023-01-08T07:45:39;94605.06;;;3.30;100.00
13314;BME280;6725;48.112;11.604;2023-01-08T07:48:05;94610.34;;;3.12;100.00
13314;BME280;6725;48.112;11.604;2023-01-08T07:50:31;94607.09;;;2.89;100.00
13314;BME280;6725;48.112;11.604;2023-01-08T07:53:00;94600.13;;;2.85;100.00
13314;BME280;6725;48.112;11.604;2023-01-08T07:55:27;94595.47;;;2.82;100.00
13314;BME280;6725;48.112;11.604;2023-01-08T07:57:52;94593.09;;;2.73;100.00
13314;BME280;6725;48.112;11.604;2023-01-08T08:00:18;94589.22;;;2.67;100.00
13314;BME280;6725;48.112;11.604;2023-01-08T08:02:43;94591.06;;;2.63;100.00
13314;BME280;6725;48.112;11.604;2023-01-08T08:05:09;94580.28;;;2.63;100.00
13314;BME280;6725;48.112;11.604;2023-01-08T08:07:34;94565.22;;;2.55;100.00
13314;BME280;6725;48.112;11.604;2023-01-08T08:10:01;94561.44;;;2.63;100.00
13314;BME280;6725;48.112;11.604;2023-01-08T08:12:26;94561.50;;;2.70;100.00
13314;BME280;6725;48.112;11.604;2023-01-08T08:14:52;94560.06;;;2.83;100.00
13314;BME280;6725;48.112;11.604;2023-01-08T08:17:17;94562.44;;;2.95;100.00
13314;BME280;6725;48.112;11.604;2023-01-08T08:19:42;94550.22;;;3.08;100.00
13314;BME280;6725;48.112;11.604;2023-01-08T08:22:10;94560.28;;;3.15;100.00
13314;BME280;6725;48.112;11.604;2023-01-08T08:24:35;94566.50;;;3.22;100.00
13314;BME280;6725;48.112;11.604;2023-01-08T08:27:00;94570.34;;;3.28;100.00
13314;BME280;6725;48.112;11.604;2023-01-08T08:29:26;94578.88;;;3.30;100.00
13314;BME280;6725;48.112;11.604;2023-01-08T08:31:51;94585.00;;;3.31;100.00
13314;BME280;6725;48.112;11.604;2023-01-08T08:34:16;94588.13;;;3.36;100.00
13314;BME280;6725;48.112;11.604;2023-01-08T08:36:42;94582.44;;;3.48;100.00
13314;BME280;6725;48.112;11.604;2023-01-08T08:39:07;94589.03;;;3.58;100.00
13314;BME280;6725;48.112;11.604;2023-01-08T08:41:32;94581.38;;;3.74;100.00
13314;BME280;6725;48.112;11.604;2023-01-08T08:43:58;94589.91;;;3.87;100.00
13314;BME280;6725;48.112;11.604;2023-01-08T08:46:23;94596.53;;;4.03;100.00
13314;BME280;6725;48.112;11.604;2023-01-08T08:48:49;94592.31;;;4.09;100.00
13314;BME280;6725;48.112;11.604;2023-01-08T08:51:15;94604.34;;;4.26;100.00
13314;BME280;6725;48.112;11.604;2023-01-08T08:53:40;94600.09;;;4.32;100.00
13314;BME280;6725;48.112;11.604;2023-01-08T08:56:06;94618.25;;;4.35;100.00
13314;BME280;6725;48.112;11.604;2023-01-08T08:58:31;94615.53;;;4.35;100.00
13314;BME280;6725;48.112;11.604;2023-01-08T09:01:03;94614.03;;;4.48;100.00
13314;BME280;6725;48.112;11.604;2023-01-08T09:03:29;94609.03;;;4.64;100.00
13314;BME280;6725;48.112;11.604;2023-01-08T09:05:55;94610.59;;;4.93;100.00
13314;BME280;6725;48.112;11.604;2023-01-08T09:08:20;94621.03;;;5.33;100.00
13314;BME280;6725;48.112;11.604;2023-01-08T09:10:45;94622.88;;;5.85;100.00
13314;BME280;6725;48.112;11.604;2023-01-08T09:13:11;94633.84;;;6.50;100.00
13314;BME280;6725;48.112;11.604;2023-01-08T09:15:36;94650.75;;;6.75;100.00
13314;BME280;6725;48.112;11.604;2023-01-08T09:18:02;94667.06;;;6.68;100.00
13314;BME280;6725;48.112;11.604;2023-01-08T09:20:27;94674.03;;;6.69;100.00
13314;BME280;6725;48.112;11.604;2023-01-08T09:22:53;94684.84;;;6.76;100.00
13314;BME280;6725;48.112;11.604;2023-01-08T09:25:19;94688.38;;;6.69;100.00
13314;BME280;6725;48.112;11.604;2023-01-08T09:27:44;94682.63;;;6.57;100.00
13314;BME280;6725;48.112;11.604;2023-01-08T09:30:10;94683.88;;;6.42;100.00
13314;BME280;6725;48.112;11.604;2023-01-08T09:32:36;94684.28;;;6.33;100.00
13314;BME280;6725;48.112;11.604;2023-01-08T09:35:02;94685.03;;;6.41;100.00
13314;BME280;6725;48.112;11.604;2023-01-08T09:37:29;94685.78;;;6.45;100.00
13314;BME280;6725;48.112;11.604;2023-01-08T09:39:54;94696.63;;;6.52;100.00
13314;BME280;6725;48.112;11.604;2023-01-08T09:42:22;94692.28;;;6.68;100.00
13314;BME280;6725;48.112;11.604;2023-01-08T09:44:52;94687.16;;;6.81;100.00
13314;BME280;6725;48.112;11.604;2023-01-08T09:47:28;94687.81;;;6.99;100.00
13314;BME280;6725;48.112;11.604;2023-01-08T09:50:05;94691.94;;;7.25;100.00
13314;BME280;6725;48.112;11.604;2023-01-08T09:52:32;94680.47;;;7.47;100.00
13314;BME280;6725;48.112;11.604;2023-01-08T09:54:59;94678.66;;;7.81;100.00
13314;BME280;6725;48.112;11.604;2023-01-08T09:57:25;94678.34;;;8.09;100.00
13314;BME280;6725;48.112;11.604;2023-01-08T09:59:50;94663.59;;;8.10;100.00
13314;BME280;6725;48.112;11.604;2023-01-08T10:02:23;94664.34;;;8.11;100.00
13314;BME280;6725;48.112;11.604;2023-01-08T10:04:55;94647.88;;;8.28;100.00
13314;BME280;6725;48.112;11.604;2023-01-08T10:07:23;94657.25;;;8.20;100.00
13314;BME280;6725;48.112;11.604;2023-01-08T10:09:50;94658.38;;;8.26;100.00
13314;BME280;6725;48.112;11.604;2023-01-08T10:12:34;94661.22;;;8.49;100.00
13314;BME280;6725;48.112;11.604;2023-01-08T10:15:05;94661.06;;;8.90;100.00
13314;BME280;6725;48.112;11.604;2023-01-08T10:17:41;94652.72;;;9.53;100.00
13314;BME280;6725;48.112;11.604;2023-01-08T10:20:19;94652.34;;;9.97;100.00
13314;BME280;6725;48.112;11.604;2023-01-08T10:22:46;94658.28;;;10.16;100.00
13314;BME280;6725;48.112;11.604;2023-01-08T10:25:15;94663.03;;;10.51;100.00
13314;BME280;6725;48.112;11.604;2023-01-08T10:27:50;94662.91;;;10.58;100.00
13314;BME280;6725;48.112;11.604;2023-01-08T10:30:21;94663.91;;;10.48;100.00
13314;BME280;6725;48.112;11.604;2023-01-08T10:32:52;94665.56;;;10.42;100.00
13314;BME280;6725;48.112;11.604;2023-01-08T10:35:21;94653.13;;;10.41;100.00
13314;BME280;6725;48.112;11.604;2023-01-08T10:37:48;94651.25;;;10.14;100.00
13314;BME280;6725;48.112;11.604;2023-01-08T10:42:46;94647.19;;;10.03;100.00
13314;BME280;6725;48.112;11.604;2023-01-08T10:45:20;94648.75;;;9.81;100.00
13314;BME280;6725;48.112;11.604;2023-01-08T10:47:48;94646.56;;;9.72;100.00
13314;BME280;6725;48.112;11.604;2023-01-08T10:50:20;94650.34;;;9.55;100.00
13314;BME280;6725;48.112;11.604;2023-01-08T10:52:55;94650.47;;;9.71;100.00
13314;BME280;6725;48.112;11.604;2023-01-08T10:55:23;94643.81;;;9.72;100.00
13314;BME280;6725;48.112;11.604;2023-01-08T10:58:00;94652.38;;;9.74;100.00
13314;BME280;6725;48.112;11.604;2023-01-08T11:00:31;94654.38;;;9.93;100.00
13314;BME280;6725;48.112;11.604;2023-01-08T11:02:59;94649.66;;;9.74;100.00
13314;BME280;6725;48.112;11.604;2023-01-08T11:05:34;94642.88;;;9.59;100.00
13314;BME280;6725;48.112;11.604;2023-01-08T11:08:03;94656.97;;;9.54;100.00
13314;BME280;6725;48.112;11.604;2023-01-08T11:10:31;94650.13;;;9.46;100.00
13314;BME280;6725;48.112;11.604;2023-01-08T11:12:59;94648.38;;;9.33;100.00
13314;BME280;6725;48.112;11.604;2023-01-08T11:15:39;94648.09;;;9.27;100.00
13314;BME280;6725;48.112;11.604;2023-01-08T11:20:40;94661.44;;;9.18;100.00
13314;BME280;6725;48.112;11.604;2023-01-08T11:23:21;94647.91;;;9.11;100.00
13314;BME280;6725;48.112;11.604;2023-01-08T11:25:54;94645.19;;;9.11;100.00
13314;BME280;6725;48.112;11.604;2023-01-08T11:28:26;94631.13;;;9.16;100.00
13314;BME280;6725;48.112;11.604;2023-01-08T11:30:59;94618.25;;;9.17;100.00
13314;BME280;6725;48.112;11.604;2023-01-08T11:33:29;94602.97;;;9.00;100.00
13314;BME280;6725;48.112;11.604;2023-01-08T11:36:02;94584.16;;;8.82;100.00
13314;BME280;6725;48.112;11.604;2023-01-08T11:38:32;94577.19;;;8.81;100.00
13314;BME280;6725;48.112;11.604;2023-01-08T11:41:22;94566.56;;;8.90;100.00
13314;BME280;6725;48.112;11.604;2023-01-08T11:44:31;94574.38;;;9.11;100.00
13314;BME280;6725;48.112;11.604;2023-01-08T11:52:44;94559.66;;;9.32;100.00
13314;BME280;6725;48.112;11.604;2023-01-08T11:55:19;94551.31;;;9.42;100.00
13314;BME280;6725;48.112;11.604;2023-01-08T11:58:12;94556.97;;;9.51;100.00
13314;BME280;6725;48.112;11.604;2023-01-08T12:06:35;94551.31;;;9.42;100.00
13314;BME280;6725;48.112;11.604;2023-01-08T12:11:58;94549.13;;;9.76;100.00
13314;BME280;6725;48.112;11.604;2023-01-08T12:32:33;94542.06;;;9.36;100.00
13314;BME280;6725;48.112;11.604;2023-01-08T12:35:23;94541.22;;;9.39;100.00
13314;BME280;6725;48.112;11.604;2023-01-08T12:40:42;94531.28;;;9.29;100.00
13314;BME280;6725;48.112;11.604;2023-01-08T12:43:18;94534.41;;;9.28;100.00
13314;BME280;6725;48.112;11.604;2023-01-08T12:45:49;94517.50;;;9.17;100.00
13314;BME280;6725;48.112;11.604;2023-01-08T12:48:23;94513.66;;;9.14;100.00
13314;BME280;6725;48.112;11.604;2023-01-08T12:51:22;94502.00;;;9.14;100.00
13314;BME280;6725;48.112;11.604;2023-01-08T12:54:00;94495.69;;;9.17;100.00
13314;BME280;6725;48.112;11.604;2023-01-08T13:02:01;94480.97;;;9.14;100.00
13314;BME280;6725;48.112;11.604;2023-01-08T13:04:44;94481.38;;;9.13;100.00
13314;BME280;6725;48.112;11.604;2023-01-08T13:07:17;94464.63;;;9.14;100.00
13314;BME280;6725;48.112;11.604;2023-01-08T13:09:44;94462.31;;;9.13;100.00
13314;BME280;6725;48.112;11.604;2023-01-08T13:12:13;94463.09;;;9.13;100.00
13314;BME280;6725;48.112;11.604;2023-01-08T13:19:44;94447.69;;;9.03;100.00
13314;BME280;6725;48.112;11.604;2023-01-08T13:22:24;94434.38;;;9.09;100.00
13314;BME280;6725;48.112;11.604;2023-01-08T13:24:50;94433.13;;;9.13;100.00
13314;BME280;6725;48.112;11.604;2023-01-08T13:35:00;94408.63;;;9.13;100.00
13314;BME280;6725;48.112;11.604;2023-01-08T13:37:25;94415.59;;;9.14;100.00
13314;BME280;6725;48.112;11.604;2023-01-08T13:39:51;94406.25;;;9.15;100.00
13314;BME280;6725;48.112;11.604;2023-01-08T13:42:21;94421.00;;;9.18;100.00
13314;BME280;6725;48.112;11.604;2023-01-08T13:44:50;94429.00;;;9.05;100.00
13314;BME280;6725;48.112;11.604;2023-01-08T13:47:17;94430.53;;;9.06;100.00
13314;BME280;6725;48.112;11.604;2023-01-08T13:49:46;94422.00;;;9.04;100.00
13314;BME280;6725;48.112;11.604;2023-01-08T13:55:00;94440.72;;;9.02;100.00
13314;BME280;6725;48.112;11.604;2023-01-08T13:57:37;94429.75;;;9.06;100.00
13314;BME280;6725;48.112;11.604;2023-01-08T14:00:07;94427.44;;;9.04;100.00
13314;BME280;6725;48.112;11.604;2023-01-08T14:02:41;94422.00;;;9.04;100.00
13314;BME280;6725;48.112;11.604;2023-01-08T14:05:24;94424.69;;;9.08;100.00
13314;BME280;6725;48.112;11.604;2023-01-08T14:07:50;94426.91;;;9.13;100.00
13314;BME280;6725;48.112;11.604;2023-01-08T14:10:16;94434.31;;;9.12;100.00
13314;BME280;6725;48.112;11.604;2023-01-08T14:12:42;94421.13;;;9.11;100.00
13314;BME280;6725;48.112;11.604;2023-01-08T14:15:14;94423.06;;;9.10;100.00
13314;BME280;6725;48.112;11.604;2023-01-08T14:17:42;94427.69;;;9.13;100.00
13314;BME280;6725;48.112;11.604;2023-01-08T14:20:09;94424.59;;;9.11;100.00
13314;BME280;6725;48.112;11.604;2023-01-08T14:22:35;94436.63;;;9.14;100.00
13314;BME280;6725;48.112;11.604;2023-01-08T14:25:05;94441.31;;;9.13;100.00
13314;BME280;6725;48.112;11.604;2023-01-08T14:27:32;94431.19;;;9.14;100.00
13314;BME280;6725;48.112;11.604;2023-01-08T14:29:58;94432.72;;;9.15;100.00